Time;durP1;ratioP1;P1;durP2;ratioP2;P2;SDS_P1;SDS_P2;PMS_P1;PMS_P2;Temp;Humidity;BMP_temperature;BMP_pressure;BME280_temperature;BME280_humidity;BME280_pressure;Samples;Min_cycle;Max_cycle;Signal;HPM_P1;HPM_P2
2023/05/27 00:01:04;;;;;;;0.13;0.13;;;13.60;99.90;;;;;;5116187;27;20376;-70
2023/05/27 00:03:29;;;;;;;0.55;0.52;;;13.60;99.90;;;;;;5134817;27;20015;-68
2023/05/27 00:05:55;;;;;;;0.10;0.10;;;13.70;99.90;;;;;;5135006;27;20383;-69
2023/05/27 00:08:21;;;;;;;0.85;0.60;;;13.70;99.90;;;;;;5134649;27;20016;-70
2023/05/27 00:10:48;;;;;;;1.92;1.05;;;13.50;99.90;;;;;;5134478;27;20027;-70
2023/05/27 00:13:14;;;;;;;0.20;0.20;;;13.30;99.90;;;;;;5134532;27;20103;-73
2023/05/27 00:15:40;;;;;;;0.47;0.47;;;13.30;99.90;;;;;;5134138;27;20070;-68
2023/05/27 00:18:06;;;;;;;0.10;0.10;;;13.40;99.90;;;;;;5132601;27;20417;-69
2023/05/27 00:20:32;;;;;;;0.10;0.10;;;13.40;99.90;;;;;;5132999;27;20011;-68
2023/05/27 00:22:59;;;;;;;1.27;1.17;;;13.50;99.90;;;;;;5134519;27;20093;-69
2023/05/27 00:25:26;;;;;;;0.30;0.30;;;13.40;99.90;;;;;;5116922;27;20028;-69
2023/05/27 00:27:51;;;;;;;0.25;0.25;;;13.40;99.90;;;;;;5086815;28;20052;-74
2023/05/27 00:30:17;;;;;;;0.85;0.68;;;13.40;99.90;;;;;;5075811;28;20055;-71
2023/05/27 00:32:43;;;;;;;15.95;1.20;;;13.40;99.90;;;;;;5076090;28;20035;-73
2023/05/27 00:35:10;;;;;;;1.90;1.70;;;13.20;99.90;;;;;;5074436;28;20032;-73
2023/05/27 00:37:36;;;;;;;0.17;0.17;;;12.90;99.90;;;;;;5095667;27;20027;-70
2023/05/27 00:40:02;;;;;;;0.10;0.10;;;13.00;99.90;;;;;;5134023;27;20383;-70
2023/05/27 00:42:28;;;;;;;0.63;0.63;;;13.30;99.90;;;;;;5134171;27;20076;-71
2023/05/27 00:44:54;;;;;;;0.20;0.20;;;13.20;99.90;;;;;;5115834;27;20467;-70
2023/05/27 00:47:19;;;;;;;0.47;0.47;;;13.10;99.90;;;;;;5134314;27;20023;-70
2023/05/27 00:49:45;;;;;;;0.85;0.85;;;13.30;99.90;;;;;;5133556;27;20034;-70
2023/05/27 00:52:13;;;;;;;0.95;0.90;;;13.30;99.90;;;;;;5115756;27;20026;-71
2023/05/27 00:54:42;;;;;;;0.10;0.10;;;13.30;99.90;;;;;;5115401;27;20031;-72
2023/05/27 00:57:07;;;;;;;2.05;0.88;;;13.10;99.90;;;;;;5134188;27;20029;-69
2023/05/27 00:59:33;;;;;;;0.20;0.20;;;13.00;99.90;;;;;;5115525;27;20031;-69
2023/05/27 01:01:59;;;;;;;0.40;0.40;;;12.80;99.90;;;;;;5115879;27;20015;-70
2023/05/27 01:04:26;;;;;;;0.73;0.73;;;12.80;99.90;;;;;;5115352;27;20057;-69
2023/05/27 01:07:08;;;;;;;0.10;0.10;;;12.60;99.90;;;;;;5115373;28;20031;-69
2023/05/27 01:09:52;;;;;;;4.38;4.07;;;12.70;99.90;;;;;;5115374;28;20459;-69
2023/05/27 01:12:39;;;;;;;0.10;0.10;;;12.70;99.90;;;;;;5109372;27;20054;-69
2023/05/27 01:15:07;;;;;;;2.83;1.73;;;12.50;99.90;;;;;;5100856;28;20043;-69
2023/05/27 01:17:42;;;;;;;0.20;0.20;;;12.60;99.90;;;;;;5115379;28;20023;-69
2023/05/27 01:20:14;;;;;;;0.65;0.52;;;12.50;99.90;;;;;;5115042;28;20459;-69
2023/05/27 01:22:42;;;;;;;0.10;0.10;;;12.60;99.90;;;;;;5115425;28;20026;-70
2023/05/27 01:25:09;;;;;;;0.20;0.20;;;12.80;99.90;;;;;;5133775;27;20023;-69
2023/05/27 01:27:35;;;;;;;0.10;0.10;;;12.80;99.90;;;;;;5118415;27;20047;-69
2023/05/27 01:30:02;;;;;;;0.63;0.63;;;12.70;99.90;;;;;;5138059;27;20131;-69
2023/05/27 01:32:35;;;;;;;0.55;0.15;;;12.60;99.90;;;;;;5090997;27;20027;-69
2023/05/27 01:35:01;;;;;;;0.20;0.20;;;12.60;99.90;;;;;;5113994;28;20055;-69
2023/05/27 01:37:31;;;;;;;0.10;0.10;;;12.70;99.90;;;;;;5115067;27;20065;-70
2023/05/27 01:39:57;;;;;;;0.15;0.15;;;12.70;99.90;;;;;;5119067;27;20475;-69
2023/05/27 01:42:23;;;;;;;0.13;0.13;;;12.50;99.90;;;;;;5107713;28;20031;-69
2023/05/27 01:44:51;;;;;;;0.10;0.10;;;12.50;99.90;;;;;;5134993;27;20364;-70
2023/05/27 01:47:17;;;;;;;0.10;0.10;;;12.70;99.90;;;;;;5119159;27;20102;-69
2023/05/27 01:49:42;;;;;;;0.10;0.10;;;12.60;99.90;;;;;;5118948;27;20114;-70
2023/05/27 01:52:08;;;;;;;1.13;0.47;;;12.80;99.90;;;;;;5137395;27;20100;-70
2023/05/27 01:54:35;;;;;;;0.80;0.80;;;12.60;99.90;;;;;;5112602;28;20028;-70
2023/05/27 01:57:00;;;;;;;1.88;0.65;;;12.40;99.90;;;;;;5129240;27;20019;-69
2023/05/27 01:59:26;;;;;;;0.10;0.10;;;12.30;99.90;;;;;;5118823;27;20094;-69
2023/05/27 02:01:52;;;;;;;0.10;0.10;;;12.40;99.90;;;;;;5118808;27;20031;-70
2023/05/27 02:04:19;;;;;;;0.25;0.25;;;12.40;99.90;;;;;;5118987;27;20023;-69
2023/05/27 02:06:44;;;;;;;0.10;0.10;;;12.70;99.90;;;;;;5118831;27;20023;-70
2023/05/27 02:09:12;;;;;;;0.13;0.13;;;12.50;99.90;;;;;;5118569;27;20023;-69
2023/05/27 02:11:39;;;;;;;0.10;0.10;;;12.60;99.90;;;;;;5112444;28;20452;-70
2023/05/27 02:14:05;;;;;;;0.10;0.10;;;12.70;99.90;;;;;;5129436;27;20054;-69
2023/05/27 02:16:33;;;;;;;0.20;0.20;;;12.20;99.90;;;;;;5136436;27;20027;-69
2023/05/27 02:19:01;;;;;;;0.10;0.10;;;12.30;99.90;;;;;;5118640;27;20023;-69
2023/05/27 02:21:26;;;;;;;0.10;0.10;;;12.40;99.90;;;;;;5118235;27;20437;-69
2023/05/27 02:23:52;;;;;;;0.10;0.10;;;12.30;99.90;;;;;;5137012;27;20015;-70
2023/05/27 02:26:18;;;;;;;0.57;0.57;;;12.50;99.90;;;;;;5118423;27;20472;-70
2023/05/27 02:28:43;;;;;;;0.28;0.28;;;12.50;99.90;;;;;;5118365;27;20027;-69
2023/05/27 02:31:09;;;;;;;0.10;0.10;;;12.30;99.90;;;;;;5117995;27;20440;-69
2023/05/27 02:33:37;;;;;;;17.33;2.05;;;12.20;99.90;;;;;;5118062;27;20030;-69
2023/05/27 02:36:02;;;;;;;0.10;0.10;;;12.10;99.90;;;;;;5136830;27;20031;-69
2023/05/27 02:38:28;;;;;;;0.68;0.45;;;12.00;99.90;;;;;;5117970;27;20025;-69
2023/05/27 02:40:54;;;;;;;4.20;2.60;;;11.80;99.90;;;;;;5100796;27;20126;-69
2023/05/27 02:43:20;;;;;;;1.38;0.45;;;11.80;99.90;;;;;;5117938;27;20034;-69
2023/05/27 02:45:46;;;;;;;0.50;0.30;;;11.70;99.90;;;;;;5130109;27;20027;-69
2023/05/27 02:48:12;;;;;;;0.13;0.13;;;11.70;99.90;;;;;;5110347;27;20051;-69
2023/05/27 02:50:38;;;;;;;1.08;1.08;;;11.80;99.90;;;;;;5117674;27;20027;-69
2023/05/27 02:53:04;;;;;;;0.20;0.20;;;11.70;99.90;;;;;;5117842;27;20405;-69
2023/05/27 02:55:31;;;;;;;3.83;1.25;;;11.50;99.90;;;;;;5117887;27;20039;-69
2023/05/27 02:57:57;;;;;;;4.40;2.40;;;11.40;99.90;;;;;;5117637;27;20420;-69
2023/05/27 03:00:22;;;;;;;0.10;0.10;;;11.30;99.90;;;;;;5117642;27;20468;-70
2023/05/27 03:02:48;;;;;;;0.15;0.15;;;11.30;99.90;;;;;;5117705;27;20143;-70
2023/05/27 03:05:14;;;;;;;1.35;0.28;;;11.40;99.90;;;;;;5117635;27;20058;-69
2023/05/27 03:07:41;;;;;;;1.90;1.20;;;11.40;99.90;;;;;;5117785;27;20026;-69
2023/05/27 03:10:07;;;;;;;0.75;0.20;;;11.40;99.90;;;;;;5136130;27;20035;-70
2023/05/27 03:12:33;;;;;;;0.20;0.20;;;11.40;99.90;;;;;;5117485;27;20042;-70
2023/05/27 03:15:00;;;;;;;2.80;0.35;;;11.60;99.90;;;;;;5117050;27;20045;-69
2023/05/27 03:17:29;;;;;;;0.30;0.30;;;11.60;99.90;;;;;;5117490;27;20168;-70
2023/05/27 03:19:55;;;;;;;0.20;0.20;;;11.60;99.90;;;;;;5135701;27;20072;-70
2023/05/27 03:22:21;;;;;;;0.10;0.10;;;11.60;99.90;;;;;;5117568;27;20027;-70
2023/05/27 03:24:47;;;;;;;0.10;0.10;;;11.70;99.90;;;;;;5117177;27;20388;-71
2023/05/27 03:27:13;;;;;;;0.60;0.60;;;11.80;99.90;;;;;;5117500;27;20102;-69
2023/05/27 03:29:42;;;;;;;0.20;0.20;;;11.70;99.90;;;;;;5116807;27;20080;-71
2023/05/27 03:32:08;;;;;;;0.10;0.10;;;11.60;99.90;;;;;;5135807;27;20031;-70
2023/05/27 03:34:35;;;;;;;0.10;0.10;;;11.60;99.90;;;;;;5116879;27;20076;-70
2023/05/27 03:37:01;;;;;;;0.10;0.10;;;11.40;99.90;;;;;;5117223;27;20027;-69
2023/05/27 03:39:43;;;;;;;0.20;0.20;;;11.40;99.90;;;;;;5116659;27;20053;-70
2023/05/27 03:42:09;;;;;;;0.20;0.20;;;11.50;99.90;;;;;;5116654;27;20046;-70
2023/05/27 03:44:35;;;;;;;0.55;0.55;;;11.40;99.90;;;;;;5134622;27;20039;-71
2023/05/27 03:47:05;;;;;;;0.15;0.15;;;11.50;99.90;;;;;;5120678;27;20028;-70
2023/05/27 03:49:32;;;;;;;0.30;0.30;;;11.60;99.90;;;;;;5116152;27;20383;-70
2023/05/27 03:51:58;;;;;;;0.10;0.10;;;11.30;99.90;;;;;;5116605;27;20023;-70
2023/05/27 03:54:24;;;;;;;0.10;0.10;;;11.30;99.90;;;;;;5135215;27;20040;-70
2023/05/27 03:56:51;;;;;;;0.63;0.63;;;11.40;99.90;;;;;;5116556;27;20027;-69
2023/05/27 03:59:17;;;;;;;0.85;0.52;;;11.30;99.90;;;;;;5116414;27;20083;-69
2023/05/27 04:01:47;;;;;;;5.57;2.28;;;11.40;99.90;;;;;;5116523;27;20046;-69
2023/05/27 04:04:13;;;;;;;0.50;0.50;;;11.20;99.90;;;;;;5116091;27;20060;-70
2023/05/27 04:06:41;;;;;;;0.43;0.25;;;11.40;99.90;;;;;;5134841;27;20104;-70
2023/05/27 04:09:07;;;;;;;0.10;0.10;;;11.40;99.90;;;;;;5134554;27;20038;-70
2023/05/27 04:11:33;;;;;;;0.20;0.20;;;11.30;99.90;;;;;;5135427;27;20027;-70
2023/05/27 04:13:58;;;;;;;0.20;0.20;;;11.30;99.90;;;;;;5115748;27;20087;-70
2023/05/27 04:16:25;;;;;;;0.10;0.10;;;11.60;99.90;;;;;;5116360;27;20023;-70
2023/05/27 04:18:51;;;;;;;0.38;0.38;;;11.50;99.90;;;;;;5134601;27;20047;-70
2023/05/27 04:21:20;;;;;;;0.20;0.20;;;11.50;99.90;;;;;;5134219;27;20058;-70
2023/05/27 04:23:46;;;;;;;0.10;0.10;;;11.60;99.90;;;;;;5116287;27;20494;-70
2023/05/27 04:26:14;;;;;;;1.45;1.38;;;11.50;99.90;;;;;;5116008;27;20471;-69
2023/05/27 04:28:45;;;;;;;0.17;0.17;;;11.50;99.90;;;;;;5115843;27;20030;-69
2023/05/27 04:31:13;;;;;;;0.32;0.30;;;11.60;99.90;;;;;;5115662;27;20019;-70
2023/05/27 04:33:44;;;;;;;0.70;0.70;;;11.40;99.90;;;;;;5115984;27;20378;-70
2023/05/27 04:36:11;;;;;;;0.50;0.50;;;11.40;99.90;;;;;;5115889;27;20038;-69
2023/05/27 04:38:57;;;;;;;0.38;0.38;;;11.50;99.90;;;;;;5133407;27;20027;-69
2023/05/27 04:41:27;;;;;;;0.10;0.10;;;11.30;99.90;;;;;;5115495;27;20031;-70
2023/05/27 04:43:52;;;;;;;0.20;0.20;;;11.10;99.90;;;;;;5134107;27;20604;-69
2023/05/27 04:46:24;;;;;;;0.10;0.10;;;11.30;99.90;;;;;;5104325;28;20387;-70
2023/05/27 04:48:52;;;;;;;0.65;0.65;;;11.40;99.90;;;;;;5112796;27;20023;-70
2023/05/27 04:51:18;;;;;;;0.10;0.10;;;11.50;99.90;;;;;;5115848;27;20111;-71
2023/05/27 04:53:47;;;;;;;0.20;0.20;;;11.40;99.90;;;;;;5115415;27;20030;-70
2023/05/27 04:56:16;;;;;;;0.40;0.40;;;11.40;99.90;;;;;;5115292;27;20162;-70
2023/05/27 04:58:46;;;;;;;0.10;0.10;;;11.50;99.90;;;;;;5115462;27;20034;-69
2023/05/27 05:01:17;;;;;;;0.10;0.10;;;11.60;99.90;;;;;;5114672;28;20099;-69
2023/05/27 05:04:10;;;;;;;0.65;0.65;;;11.90;99.90;;;;;;5115526;27;20027;-69
2023/05/27 05:06:39;;;;;;;0.85;0.85;;;11.80;99.90;;;;;;5115546;27;20023;-69
2023/05/27 05:09:05;;;;;;;0.10;0.10;;;11.80;99.90;;;;;;5115400;28;20027;-70
2023/05/27 05:11:32;;;;;;;0.10;0.10;;;11.80;99.90;;;;;;5114998;27;20051;-70
2023/05/27 05:13:57;;;;;;;0.20;0.20;;;11.70;99.90;;;;;;5115215;28;20115;-71
2023/05/27 05:16:23;;;;;;;0.10;0.10;;;11.90;99.90;;;;;;5115501;28;20509;-70
2023/05/27 05:18:51;;;;;;;0.10;0.10;;;11.90;99.90;;;;;;5115492;28;20019;-69
2023/05/27 05:21:18;;;;;;;8.68;0.63;;;11.90;99.90;;;;;;5115137;28;20035;-70
2023/05/27 05:23:44;;;;;;;0.32;0.32;;;11.90;99.90;;;;;;5115103;28;20027;-69
2023/05/27 05:26:09;;;;;;;0.10;0.10;;;11.70;99.90;;;;;;5114921;28;20397;-70
2023/05/27 05:28:39;;;;;;;0.10;0.10;;;12.00;99.90;;;;;;5115345;28;20540;-70
2023/05/27 05:31:07;;;;;;;0.10;0.10;;;12.40;99.90;;;;;;5115048;28;20403;-70
2023/05/27 05:33:33;;;;;;;4.90;0.85;;;12.50;99.90;;;;;;5115219;28;20015;-69
2023/05/27 05:35:59;;;;;;;1.17;0.55;;;12.40;99.90;;;;;;5114790;28;20035;-70
2023/05/27 05:38:32;;;;;;;4.38;1.88;;;12.30;99.90;;;;;;5115232;28;20444;-70
2023/05/27 05:40:58;;;;;;;0.22;0.22;;;12.10;99.90;;;;;;5114564;28;20071;-70
2023/05/27 05:43:25;;;;;;;0.80;0.50;;;12.20;99.90;;;;;;5115033;28;20023;-69
2023/05/27 05:45:51;;;;;;;0.10;0.10;;;12.30;99.90;;;;;;5108098;28;20068;-70
2023/05/27 05:48:19;;;;;;;0.10;0.10;;;12.40;99.90;;;;;;5107918;28;20039;-70
2023/05/27 05:50:45;;;;;;;0.10;0.10;;;12.60;99.90;;;;;;5115133;28;20050;-70
2023/05/27 05:53:11;;;;;;;0.20;0.20;;;12.70;99.90;;;;;;5115001;28;20045;-70
2023/05/27 05:55:37;;;;;;;6.32;1.55;;;12.70;99.90;;;;;;5114600;28;20104;-70
2023/05/27 05:58:03;;;;;;;0.10;0.10;;;12.90;99.90;;;;;;5133265;28;20069;-70
2023/05/27 06:00:30;;;;;;;0.10;0.10;;;13.30;99.90;;;;;;5114833;28;20168;-71
2023/05/27 06:03:13;;;;;;;0.43;0.43;;;13.30;99.90;;;;;;5100425;28;20391;-70
2023/05/27 06:05:45;;;;;;;0.10;0.10;;;13.10;99.90;;;;;;5115117;28;20383;-71
2023/05/27 06:08:11;;;;;;;1.02;0.63;;;12.90;99.90;;;;;;5114961;28;20491;-72
2023/05/27 06:10:41;;;;;;;0.17;0.17;;;13.20;99.90;;;;;;5098188;28;20023;-70
2023/05/27 06:13:10;;;;;;;0.10;0.10;;;13.20;99.90;;;;;;5135321;27;20115;-73
2023/05/27 06:15:37;;;;;;;0.17;0.17;;;13.30;99.90;;;;;;5118658;27;20451;-72
2023/05/27 06:18:04;;;;;;;0.88;0.82;;;13.50;99.90;;;;;;5118411;27;20463;-70
2023/05/27 06:20:30;;;;;;;0.35;0.32;;;13.40;99.90;;;;;;5118735;27;20027;-70
2023/05/27 06:22:56;;;;;;;0.40;0.40;;;13.60;99.90;;;;;;5136447;27;20019;-71
2023/05/27 06:25:59;;;;;;;0.10;0.10;;;13.80;99.90;;;;;;5136606;27;20043;-70
2023/05/27 06:28:28;;;;;;;0.73;0.73;;;14.00;99.90;;;;;;5118383;27;20434;-71
2023/05/27 06:30:54;;;;;;;2.55;0.65;;;14.10;99.90;;;;;;5101701;27;20058;-72
2023/05/27 06:33:20;;;;;;;0.10;0.10;;;14.20;99.90;;;;;;5118124;27;20531;-70
2023/05/27 06:35:45;;;;;;;1.08;1.08;;;14.10;99.90;;;;;;5118478;27;20070;-71
2023/05/27 06:38:12;;;;;;;0.35;0.35;;;14.30;99.90;;;;;;5136337;27;20023;-71
2023/05/27 06:40:38;;;;;;;0.43;0.40;;;14.50;99.90;;;;;;5118161;27;20505;-71
2023/05/27 06:43:04;;;;;;;3.03;1.35;;;14.40;99.90;;;;;;5117972;27;20131;-71
2023/05/27 06:45:39;;;;;;;3.25;1.05;;;14.40;99.90;;;;;;5112818;28;20550;-71
2023/05/27 06:48:22;;;;;;;0.50;0.50;;;14.00;99.90;;;;;;5111143;27;20037;-71
2023/05/27 06:50:48;;;;;;;0.40;0.40;;;14.00;99.90;;;;;;5117894;27;20019;-70
2023/05/27 06:53:13;;;;;;;0.10;0.10;;;14.00;99.90;;;;;;5135837;27;20114;-70
2023/05/27 06:55:50;;;;;;;0.20;0.20;;;13.90;99.90;;;;;;5117638;27;20034;-70
2023/05/27 06:58:46;;;;;;;0.77;0.77;;;13.80;99.90;;;;;;5135462;27;20035;-70
2023/05/27 07:01:14;;;;;;;13.05;1.65;;;13.80;99.90;;;;;;5117801;27;20058;-71
2023/05/27 07:03:51;;;;;;;0.63;0.63;;;14.30;99.90;;;;;;5101984;27;20020;-70
2023/05/27 07:06:24;;;;;;;0.13;0.13;;;14.50;99.90;;;;;;5117611;27;20455;-70
2023/05/27 07:08:52;;;;;;;0.10;0.10;;;14.40;99.90;;;;;;5117444;27;20030;-70
2023/05/27 07:11:26;;;;;;;3.63;0.45;;;14.50;99.90;;;;;;5117869;27;20502;-70
2023/05/27 07:13:56;;;;;;;0.80;0.65;;;14.90;99.90;;;;;;5100947;27;20387;-71
2023/05/27 07:16:26;;;;;;;0.10;0.10;;;15.10;99.90;;;;;;5135834;27;20122;-70
2023/05/27 07:18:54;;;;;;;0.93;0.63;;;15.30;99.90;;;;;;5117628;27;20056;-70
2023/05/27 07:21:20;;;;;;;0.40;0.40;;;15.10;99.90;;;;;;5100041;27;20023;-71
2023/05/27 07:23:47;;;;;;;3.13;0.40;;;15.00;99.90;;;;;;5116263;28;20041;-70
2023/05/27 07:26:22;;;;;;;1.83;0.80;;;15.10;99.90;;;;;;5117062;27;20470;-70
2023/05/27 07:28:48;;;;;;;0.15;0.15;;;15.50;99.90;;;;;;5117307;27;20035;-71
2023/05/27 07:31:21;;;;;;;0.60;0.60;;;15.20;99.90;;;;;;5117077;27;20012;-70
2023/05/27 07:33:53;;;;;;;0.88;0.88;;;15.30;99.90;;;;;;5116987;27;20054;-70
2023/05/27 07:36:21;;;;;;;0.13;0.13;;;15.30;99.90;;;;;;5116694;27;20034;-70
2023/05/27 07:38:46;;;;;;;0.10;0.10;;;15.50;99.90;;;;;;5135467;27;20027;-70
2023/05/27 07:41:13;;;;;;;0.10;0.10;;;16.00;99.90;;;;;;5116836;27;20049;-71
2023/05/27 07:43:39;;;;;;;0.30;0.30;;;15.80;99.90;;;;;;5116732;27;20455;-70
2023/05/27 07:46:05;;;;;;;0.95;0.95;;;16.20;99.90;;;;;;5108048;28;20016;-70
2023/05/27 07:48:34;;;;;;;0.28;0.28;;;16.10;99.90;;;;;;5111496;27;20099;-70
2023/05/27 07:51:00;;;;;;;0.73;0.73;;;16.40;99.90;;;;;;5116780;27;20047;-70
2023/05/27 07:53:26;;;;;;;0.20;0.20;;;16.50;99.90;;;;;;5116831;27;20019;-70
2023/05/27 07:55:51;;;;;;;2.35;1.45;;;16.50;99.90;;;;;;5116476;27;20056;-70
2023/05/27 07:58:17;;;;;;;0.65;0.65;;;16.60;99.90;;;;;;5116643;27;20034;-70
2023/05/27 08:00:55;;;;;;;0.00;0.00;;;16.60;99.90;;;;;;5116566;27;20106;-70
2023/05/27 08:03:22;;;;;;;0.00;0.00;;;16.90;99.90;;;;;;5116612;27;20030;-70
2023/05/27 08:05:58;;;;;;;0.65;0.52;;;17.20;99.90;;;;;;5115909;27;20019;-70
2023/05/27 08:08:56;;;;;;;0.13;0.13;;;17.00;99.90;;;;;;5088959;27;20023;-69
2023/05/27 08:11:54;;;;;;;0.32;0.32;;;17.10;99.90;;;;;;5109495;27;20035;-71
2023/05/27 08:14:34;;;;;;;4.70;4.43;;;17.20;99.90;;;;;;5116094;27;20039;-69
2023/05/27 08:17:39;;;;;;;0.05;0.05;;;17.20;99.90;;;;;;5121392;27;20039;-70
2023/05/27 08:20:39;;;;;;;1.55;0.90;;;17.40;99.90;;;;;;5108488;27;20391;-69
2023/05/27 08:23:08;;;;;;;0.10;0.10;;;17.10;99.90;;;;;;5134975;27;20043;-70
2023/05/27 08:25:46;;;;;;;0.08;0.08;;;17.20;99.90;;;;;;5117830;27;20034;-70
2023/05/27 08:28:41;;;;;;;6.93;1.85;;;17.70;99.90;;;;;;5039548;27;20045;-70
2023/05/27 08:31:10;;;;;;;1.15;1.02;;;18.10;99.70;;;;;;5134426;27;20039;-70
2023/05/27 08:33:39;;;;;;;0.17;0.17;;;18.10;98.70;;;;;;5134157;27;20027;-71
2023/05/27 08:36:06;;;;;;;0.50;0.47;;;17.80;99.20;;;;;;5115593;27;20081;-71
2023/05/27 08:38:32;;;;;;;0.10;0.10;;;17.80;99.20;;;;;;5115995;27;20174;-72
2023/05/27 08:41:18;;;;;;;0.35;0.35;;;17.90;99.30;;;;;;5133940;27;20479;-70
2023/05/27 08:43:45;;;;;;;6.65;0.65;;;18.00;99.90;;;;;;5111122;27;20031;-71
2023/05/27 08:46:13;;;;;;;0.10;0.10;;;18.10;99.80;;;;;;5105818;28;20027;-71
2023/05/27 08:48:40;;;;;;;0.00;0.00;;;18.50;99.10;;;;;;5110985;27;20023;-71
2023/05/27 08:51:07;;;;;;;0.28;0.28;;;18.60;99.20;;;;;;5115545;27;20073;-70
2023/05/27 08:53:33;;;;;;;0.47;0.47;;;18.80;98.10;;;;;;5115648;27;20036;-70
2023/05/27 08:56:03;;;;;;;0.08;0.08;;;18.80;97.00;;;;;;5103674;28;20309;-72
2023/05/27 08:58:31;;;;;;;0.15;0.15;;;19.00;98.20;;;;;;5107160;27;20019;-71
2023/05/27 09:00:58;;;;;;;0.10;0.10;;;19.10;97.40;;;;;;5111626;27;20102;-72
2023/05/27 09:03:27;;;;;;;0.30;0.30;;;18.90;97.50;;;;;;5089901;28;20047;-71
2023/05/27 09:05:55;;;;;;;0.13;0.13;;;19.00;98.20;;;;;;5091785;28;20016;-72
2023/05/27 09:08:21;;;;;;;0.45;0.45;;;19.40;98.00;;;;;;5091343;28;20031;-72
2023/05/27 09:10:47;;;;;;;1.65;0.20;;;19.50;97.30;;;;;;5109059;28;20008;-72
2023/05/27 09:13:12;;;;;;;0.75;0.75;;;19.40;97.70;;;;;;5108427;28;20039;-71
2023/05/27 09:15:40;;;;;;;0.17;0.17;;;19.40;97.20;;;;;;5108646;28;20043;-72
2023/05/27 09:18:06;;;;;;;3.08;1.23;;;19.50;97.10;;;;;;5105030;28;20023;-71
2023/05/27 09:20:31;;;;;;;3.35;0.50;;;19.40;96.60;;;;;;5108966;28;20624;-71
2023/05/27 09:23:03;;;;;;;0.00;0.00;;;19.50;97.30;;;;;;5087586;28;20400;-73
2023/05/27 09:25:29;;;;;;;0.40;0.40;;;20.00;97.10;;;;;;5079728;28;20081;-71
2023/05/27 09:27:56;;;;;;;0.30;0.30;;;20.20;96.50;;;;;;5108445;28;20012;-71
2023/05/27 09:30:22;;;;;;;0.05;0.05;;;20.30;96.60;;;;;;5108738;28;20035;-71
2023/05/27 09:32:49;;;;;;;1.35;1.25;;;20.20;96.00;;;;;;5094181;28;20062;-71
2023/05/27 09:35:16;;;;;;;0.30;0.30;;;20.10;95.30;;;;;;5092880;28;20030;-73
2023/05/27 09:37:45;;;;;;;0.10;0.10;;;20.20;96.60;;;;;;5108566;28;20381;-71
2023/05/27 09:40:12;;;;;;;0.00;0.00;;;20.60;95.70;;;;;;5108971;28;20049;-72
2023/05/27 09:42:45;;;;;;;0.55;0.52;;;20.90;95.60;;;;;;5101169;28;20096;-71
2023/05/27 09:45:13;;;;;;;4.57;0.73;;;20.70;95.00;;;;;;5103142;28;20057;-71
2023/05/27 09:47:47;;;;;;;0.65;0.32;;;21.00;95.30;;;;;;5117562;27;20102;-72
2023/05/27 09:50:15;;;;;;;53.67;3.80;;;21.40;94.50;;;;;;5129979;27;20123;-72
2023/05/27 09:52:43;;;;;;;0.00;0.00;;;21.10;94.70;;;;;;5111764;28;20527;-72
2023/05/27 09:55:11;;;;;;;0.00;0.00;;;21.20;95.00;;;;;;5117508;27;20031;-72
2023/05/27 09:57:38;;;;;;;0.10;0.10;;;21.80;94.70;;;;;;5112043;27;20034;-72
2023/05/27 10:00:11;;;;;;;0.10;0.10;;;21.80;93.90;;;;;;5112960;28;20504;-73
2023/05/27 10:02:40;;;;;;;6.05;1.35;;;21.80;94.30;;;;;;5110878;28;20035;-72
2023/05/27 10:05:07;;;;;;;3.63;0.80;;;22.00;93.20;;;;;;5112845;28;20031;-73
2023/05/27 10:07:38;;;;;;;0.70;0.70;;;22.00;93.00;;;;;;5113897;27;20024;-73
2023/05/27 10:10:09;;;;;;;0.28;0.28;;;21.70;93.50;;;;;;5109061;28;20085;-72
2023/05/27 10:12:43;;;;;;;1.30;0.47;;;22.20;93.60;;;;;;5109280;28;20073;-72
2023/05/27 10:15:09;;;;;;;3.03;0.47;;;22.50;93.10;;;;;;5086216;28;20051;-72
2023/05/27 10:17:53;;;;;;;0.65;0.65;;;22.60;92.30;;;;;;5111834;28;20042;-72
2023/05/27 10:20:32;;;;;;;1.65;1.38;;;22.30;91.60;;;;;;5110645;28;20463;-72
2023/05/27 10:23:21;;;;;;;0.05;0.05;;;22.00;92.70;;;;;;5114622;27;20554;-72
2023/05/27 10:25:52;;;;;;;2.25;0.55;;;22.40;92.30;;;;;;5111722;28;20034;-72
2023/05/27 10:28:26;;;;;;;0.10;0.10;;;22.60;92.50;;;;;;5109678;28;20039;-72
2023/05/27 10:30:52;;;;;;;0.45;0.43;;;22.80;92.20;;;;;;5110581;28;20281;-71
2023/05/27 10:33:29;;;;;;;0.35;0.35;;;23.20;92.40;;;;;;5113029;28;20051;-71
2023/05/27 10:35:55;;;;;;;1.40;1.30;;;23.20;91.90;;;;;;5094876;28;20086;-71
2023/05/27 10:38:21;;;;;;;0.95;0.52;;;22.80;91.50;;;;;;5114823;28;20464;-72
2023/05/27 10:40:47;;;;;;;0.00;0.00;;;23.00;91.60;;;;;;5114159;28;20077;-72
2023/05/27 10:43:18;;;;;;;0.00;0.00;;;23.30;91.40;;;;;;5118147;27;20047;-71
2023/05/27 10:45:44;;;;;;;0.60;0.50;;;23.80;90.50;;;;;;5116071;27;20023;-71
2023/05/27 10:48:19;;;;;;;0.52;0.30;;;23.60;91.40;;;;;;5112710;28;20122;-72
2023/05/27 10:50:52;;;;;;;0.10;0.10;;;23.50;91.20;;;;;;5091957;28;20045;-72
2023/05/27 10:53:21;;;;;;;0.15;0.15;;;23.70;90.10;;;;;;5107222;28;20119;-72
2023/05/27 10:55:52;;;;;;;8.73;1.00;;;23.40;91.20;;;;;;5115191;27;20122;-72
2023/05/27 10:58:20;;;;;;;0.00;0.00;;;23.40;91.20;;;;;;5112195;28;20031;-72
2023/05/27 11:00:51;;;;;;;0.75;0.75;;;23.90;90.60;;;;;;5129838;27;20031;-71
2023/05/27 11:03:23;;;;;;;0.30;0.30;;;23.80;90.00;;;;;;5125142;27;20027;-72
2023/05/27 11:06:05;;;;;;;0.35;0.20;;;23.40;89.80;;;;;;5120542;27;20023;-72
2023/05/27 11:08:32;;;;;;;0.65;0.65;;;24.10;90.50;;;;;;5113611;27;20031;-72
2023/05/27 11:10:58;;;;;;;0.20;0.20;;;24.60;90.30;;;;;;5128748;27;20360;-71
2023/05/27 11:13:30;;;;;;;0.38;0.38;;;24.80;89.70;;;;;;5133674;27;20028;-72
2023/05/27 11:15:56;;;;;;;0.00;0.00;;;24.30;89.20;;;;;;5121750;27;20127;-71
2023/05/27 11:18:22;;;;;;;2.55;1.10;;;24.90;88.10;;;;;;5121780;27;20048;-72
2023/05/27 11:20:48;;;;;;;0.35;0.35;;;24.70;87.80;;;;;;5123725;27;20398;-72
2023/05/27 11:23:14;;;;;;;4.05;0.63;;;24.90;88.60;;;;;;5127938;27;20148;-71
2023/05/27 11:25:44;;;;;;;0.00;0.00;;;25.20;87.20;;;;;;5131417;27;20074;-71
2023/05/27 11:28:16;;;;;;;0.10;0.10;;;25.40;86.00;;;;;;5120466;27;20483;-71
2023/05/27 11:30:42;;;;;;;0.30;0.30;;;25.00;85.70;;;;;;5121520;27;20023;-71
2023/05/27 11:33:08;;;;;;;0.40;0.40;;;25.10;86.70;;;;;;5127635;27;20037;-72
2023/05/27 11:35:34;;;;;;;0.35;0.28;;;24.90;86.00;;;;;;5132467;27;20039;-71
2023/05/27 11:38:01;;;;;;;0.05;0.05;;;25.20;87.00;;;;;;5120443;27;20783;-71
2023/05/27 11:40:35;;;;;;;0.10;0.10;;;25.20;85.00;;;;;;5119439;27;20062;-71
2023/05/27 11:43:01;;;;;;;0.65;0.65;;;25.00;83.70;;;;;;5123133;27;20429;-72
2023/05/27 11:45:28;;;;;;;0.10;0.10;;;25.10;85.80;;;;;;5125971;27;20502;-72
2023/05/27 11:47:54;;;;;;;6.93;0.75;;;25.30;84.10;;;;;;5114034;28;20498;-71
2023/05/27 11:50:21;;;;;;;0.10;0.10;;;26.00;84.00;;;;;;5113085;28;20040;-71
2023/05/27 11:52:58;;;;;;;1.00;0.30;;;25.50;83.80;;;;;;5113720;28;20091;-72
2023/05/27 11:55:23;;;;;;;1.38;1.33;;;25.60;84.20;;;;;;5113297;28;20050;-72
2023/05/27 11:57:50;;;;;;;6.13;0.32;;;25.70;81.70;;;;;;5113099;28;20023;-72
2023/05/27 12:00:17;;;;;;;6.03;4.22;;;25.60;81.60;;;;;;5093850;28;20110;-71
2023/05/27 12:02:43;;;;;;;0.68;0.68;;;26.00;82.70;;;;;;5113695;28;20047;-71
2023/05/27 12:05:10;;;;;;;1.55;0.32;;;26.30;79.60;;;;;;5113700;28;20467;-71
2023/05/27 12:07:39;;;;;;;0.32;0.32;;;26.10;81.90;;;;;;5113549;28;20007;-71
2023/05/27 12:10:07;;;;;;;1.65;1.02;;;26.10;81.20;;;;;;5112907;28;20035;-73
2023/05/27 12:12:34;;;;;;;0.60;0.30;;;26.20;82.80;;;;;;5095102;28;20080;-71
2023/05/27 12:15:00;;;;;;;0.20;0.20;;;26.50;82.10;;;;;;5112030;28;20031;-72
2023/05/27 12:17:26;;;;;;;0.82;0.82;;;26.10;82.70;;;;;;5112512;28;20024;-72
2023/05/27 12:19:52;;;;;;;0.45;0.43;;;26.50;80.80;;;;;;5099639;28;20016;-71
2023/05/27 12:22:18;;;;;;;0.43;0.43;;;26.50;80.80;;;;;;5113326;28;20032;-74
2023/05/27 12:24:43;;;;;;;0.55;0.55;;;26.90;81.70;;;;;;5112922;28;20022;-72
2023/05/27 12:27:09;;;;;;;0.52;0.08;;;26.70;79.60;;;;;;5112417;28;20044;-74
2023/05/27 12:29:35;;;;;;;4.57;1.55;;;26.70;80.60;;;;;;5112576;28;20107;-73
2023/05/27 12:32:01;;;;;;;0.77;0.25;;;26.90;79.80;;;;;;5112701;28;20030;-73
2023/05/27 12:34:26;;;;;;;0.13;0.13;;;27.10;78.40;;;;;;5096100;28;20073;-74
2023/05/27 12:36:52;;;;;;;4.10;0.57;;;27.40;78.50;;;;;;5112841;28;20032;-75
2023/05/27 12:39:19;;;;;;;0.63;0.35;;;27.60;78.10;;;;;;5111999;28;20119;-74
2023/05/27 12:41:45;;;;;;;0.13;0.13;;;27.80;79.00;;;;;;5111279;28;20031;-70
2023/05/27 12:44:11;;;;;;;4.80;1.55;;;28.30;77.10;;;;;;5101241;27;20039;-74
2023/05/27 12:46:38;;;;;;;2.38;1.08;;;27.90;75.80;;;;;;5112871;28;20023;-74
2023/05/27 12:49:03;;;;;;;0.00;0.00;;;27.80;77.50;;;;;;5123480;27;20499;-72
2023/05/27 12:51:30;;;;;;;0.35;0.10;;;28.10;77.50;;;;;;5132883;27;20083;-74
2023/05/27 12:53:56;;;;;;;0.00;0.00;;;28.00;77.30;;;;;;5120965;27;20003;-72